Terminal Aerodrome Forecast
Issued by NWS Sioux Falls, SD

Home | Current Version | Previous Version | Text Only | Print | Product List | Glossary On
Versions: 1 2 3 4 5 6 7 8 9 10 11 12 13 14 15 16
295
FTUS43 KFSD 092322
TAFFSD
TAF
KFSD 092322Z 1000/1024 01004KT P6SM VCSH OVC050
     FM100300 VRB03KT P6SM OVC050
     FM101200 08006KT P6SM -SN OVC045
     FM101400 09008KT 4SM -SN OVC025
     FM101500 10009KT 1 1/2SM -SN OVC015
     FM101900 11013G21KT 3/4SM -SN OVC010=

USA.gov is the U.S. government's official web portal to all federal, state and local government web resources and services.